sensor_id;sensor_type;location;lat;lon;timestamp;P1;durP1;ratioP1;P2;durP2;ratioP2
9409;SDS011;4744;52.576;13.568;2023-10-09T00:01:01;1.20;;;1.20;;
9409;SDS011;4744;52.576;13.568;2023-10-09T00:03:31;1.50;;;1.40;;
9409;SDS011;4744;52.576;13.568;2023-10-09T00:06:01;1.60;;;1.50;;
9409;SDS011;4744;52.576;13.568;2023-10-09T00:08:30;1.80;;;1.70;;
9409;SDS011;4744;52.576;13.568;2023-10-09T00:10:58;1.80;;;1.70;;
9409;SDS011;4744;52.576;13.568;2023-10-09T00:13:38;2.30;;;1.65;;
9409;SDS011;4744;52.576;13.568;2023-10-09T00:16:14;3.03;;;1.52;;
9409;SDS011;4744;52.576;13.568;2023-10-09T00:18:43;1.60;;;1.50;;
9409;SDS011;4744;52.576;13.568;2023-10-09T00:21:13;1.88;;;1.60;;
9409;SDS011;4744;52.576;13.568;2023-10-09T00:23:43;1.80;;;1.70;;
9409;SDS011;4744;52.576;13.568;2023-10-09T00:26:17;1.60;;;1.50;;
9409;SDS011;4744;52.576;13.568;2023-10-09T00:28:47;1.60;;;1.50;;
9409;SDS011;4744;52.576;13.568;2023-10-09T00:31:16;1.70;;;1.60;;
9409;SDS011;4744;52.576;13.568;2023-10-09T00:33:55;1.60;;;1.50;;
9409;SDS011;4744;52.576;13.568;2023-10-09T00:36:32;1.83;;;1.38;;
9409;SDS011;4744;52.576;13.568;2023-10-09T00:39:15;2.22;;;1.42;;
9409;SDS011;4744;52.576;13.568;2023-10-09T00:41:48;1.63;;;1.52;;
9409;SDS011;4744;52.576;13.568;2023-10-09T00:44:15;1.50;;;1.40;;
9409;SDS011;4744;52.576;13.568;2023-10-09T00:46:41;2.20;;;1.60;;
9409;SDS011;4744;52.576;13.568;2023-10-09T00:49:10;2.47;;;1.73;;
9409;SDS011;4744;52.576;13.568;2023-10-09T00:51:42;1.85;;;1.75;;
9409;SDS011;4744;52.576;13.568;2023-10-09T00:54:21;1.60;;;1.50;;
9409;SDS011;4744;52.576;13.568;2023-10-09T00:56:53;1.52;;;1.42;;
9409;SDS011;4744;52.576;13.568;2023-10-09T00:59:31;1.65;;;1.50;;
9409;SDS011;4744;52.576;13.568;2023-10-09T01:02:04;1.50;;;1.40;;
9409;SDS011;4744;52.576;13.568;2023-10-09T01:04:38;2.35;;;1.80;;
9409;SDS011;4744;52.576;13.568;2023-10-09T01:07:08;1.67;;;1.58;;
9409;SDS011;4744;52.576;13.568;2023-10-09T01:09:46;2.38;;;1.80;;
9409;SDS011;4744;52.576;13.568;2023-10-09T01:12:16;1.80;;;1.60;;
9409;SDS011;4744;52.576;13.568;2023-10-09T01:14:43;2.38;;;1.33;;
9409;SDS011;4744;52.576;13.568;2023-10-09T01:17:10;2.13;;;1.60;;
9409;SDS011;4744;52.576;13.568;2023-10-09T01:19:39;2.20;;;1.60;;
9409;SDS011;4744;52.576;13.568;2023-10-09T01:22:08;1.65;;;1.63;;
9409;SDS011;4744;52.576;13.568;2023-10-09T01:24:41;1.90;;;1.80;;
9409;SDS011;4744;52.576;13.568;2023-10-09T01:27:08;1.67;;;1.58;;
9409;SDS011;4744;52.576;13.568;2023-10-09T01:29:40;4.60;;;1.73;;
9409;SDS011;4744;52.576;13.568;2023-10-09T01:32:09;3.22;;;1.73;;
9409;SDS011;4744;52.576;13.568;2023-10-09T01:34:44;2.30;;;2.10;;
9409;SDS011;4744;52.576;13.568;2023-10-09T01:37:15;3.42;;;1.80;;
9409;SDS011;4744;52.576;13.568;2023-10-09T01:39:45;1.77;;;1.67;;
9409;SDS011;4744;52.576;13.568;2023-10-09T01:42:16;1.77;;;1.67;;
9409;SDS011;4744;52.576;13.568;2023-10-09T01:44:53;1.90;;;1.80;;
9409;SDS011;4744;52.576;13.568;2023-10-09T01:47:20;1.75;;;1.60;;
9409;SDS011;4744;52.576;13.568;2023-10-09T01:49:47;2.35;;;1.80;;
9409;SDS011;4744;52.576;13.568;2023-10-09T01:52:17;1.80;;;1.70;;
9409;SDS011;4744;52.576;13.568;2023-10-09T01:54:47;1.80;;;1.70;;
9409;SDS011;4744;52.576;13.568;2023-10-09T01:57:19;4.03;;;1.50;;
9409;SDS011;4744;52.576;13.568;2023-10-09T01:59:48;1.92;;;1.60;;
9409;SDS011;4744;52.576;13.568;2023-10-09T02:02:18;1.73;;;1.63;;
9409;SDS011;4744;52.576;13.568;2023-10-09T02:04:52;1.95;;;1.80;;
9409;SDS011;4744;52.576;13.568;2023-10-09T02:07:21;1.70;;;1.60;;
9409;SDS011;4744;52.576;13.568;2023-10-09T02:09:54;3.60;;;1.90;;
9409;SDS011;4744;52.576;13.568;2023-10-09T02:12:21;2.63;;;1.90;;
9409;SDS011;4744;52.576;13.568;2023-10-09T02:14:49;1.98;;;1.60;;
9409;SDS011;4744;52.576;13.568;2023-10-09T02:17:21;2.03;;;1.90;;
9409;SDS011;4744;52.576;13.568;2023-10-09T02:19:54;1.88;;;1.60;;
9409;SDS011;4744;52.576;13.568;2023-10-09T02:22:22;1.80;;;1.70;;
9409;SDS011;4744;52.576;13.568;2023-10-09T02:24:51;1.70;;;1.60;;
9409;SDS011;4744;52.576;13.568;2023-10-09T02:27:25;1.80;;;1.65;;
9409;SDS011;4744;52.576;13.568;2023-10-09T02:30:18;2.33;;;1.65;;
9409;SDS011;4744;52.576;13.568;2023-10-09T02:32:52;1.50;;;1.40;;
9409;SDS011;4744;52.576;13.568;2023-10-09T02:35:28;1.85;;;1.75;;
9409;SDS011;4744;52.576;13.568;2023-10-09T02:38:04;3.67;;;2.10;;
9409;SDS011;4744;52.576;13.568;2023-10-09T02:40:35;4.00;;;1.75;;
9409;SDS011;4744;52.576;13.568;2023-10-09T02:43:19;1.83;;;1.70;;
9409;SDS011;4744;52.576;13.568;2023-10-09T02:45:50;1.80;;;1.70;;
9409;SDS011;4744;52.576;13.568;2023-10-09T02:48:17;1.70;;;1.60;;
9409;SDS011;4744;52.576;13.568;2023-10-09T02:50:46;2.30;;;2.10;;
9409;SDS011;4744;52.576;13.568;2023-10-09T02:53:15;2.08;;;1.80;;
9409;SDS011;4744;52.576;13.568;2023-10-09T02:55:45;4.20;;;1.95;;
9409;SDS011;4744;52.576;13.568;2023-10-09T02:58:30;1.77;;;1.67;;
9409;SDS011;4744;52.576;13.568;2023-10-09T03:01:01;2.05;;;1.80;;
9409;SDS011;4744;52.576;13.568;2023-10-09T03:03:28;1.70;;;1.60;;
9409;SDS011;4744;52.576;13.568;2023-10-09T03:05:55;3.40;;;2.17;;
9409;SDS011;4744;52.576;13.568;2023-10-09T03:08:22;1.98;;;1.70;;
9409;SDS011;4744;52.576;13.568;2023-10-09T03:10:50;5.28;;;2.50;;
9409;SDS011;4744;52.576;13.568;2023-10-09T03:13:17;2.45;;;1.98;;
9409;SDS011;4744;52.576;13.568;2023-10-09T03:15:46;2.67;;;2.30;;
9409;SDS011;4744;52.576;13.568;2023-10-09T03:18:16;4.32;;;2.50;;
9409;SDS011;4744;52.576;13.568;2023-10-09T03:20:44;2.50;;;2.10;;
9409;SDS011;4744;52.576;13.568;2023-10-09T03:23:11;4.35;;;2.50;;
9409;SDS011;4744;52.576;13.568;2023-10-09T03:25:39;3.40;;;2.40;;
9409;SDS011;4744;52.576;13.568;2023-10-09T03:28:12;2.42;;;2.00;;
9409;SDS011;4744;52.576;13.568;2023-10-09T03:30:40;2.38;;;2.28;;
9409;SDS011;4744;52.576;13.568;2023-10-09T03:33:13;2.08;;;1.98;;
9409;SDS011;4744;52.576;13.568;2023-10-09T03:35:41;3.75;;;2.40;;
9409;SDS011;4744;52.576;13.568;2023-10-09T03:38:08;3.13;;;2.10;;
9409;SDS011;4744;52.576;13.568;2023-10-09T03:40:40;2.47;;;2.20;;
9409;SDS011;4744;52.576;13.568;2023-10-09T03:43:08;3.00;;;2.28;;
9409;SDS011;4744;52.576;13.568;2023-10-09T03:45:36;3.53;;;2.50;;
9409;SDS011;4744;52.576;13.568;2023-10-09T03:48:10;2.30;;;2.20;;
9409;SDS011;4744;52.576;13.568;2023-10-09T03:50:47;2.67;;;2.47;;
9409;SDS011;4744;52.576;13.568;2023-10-09T03:53:27;2.58;;;2.40;;
9409;SDS011;4744;52.576;13.568;2023-10-09T03:55:55;2.83;;;2.47;;
9409;SDS011;4744;52.576;13.568;2023-10-09T03:58:22;2.50;;;2.30;;
9409;SDS011;4744;52.576;13.568;2023-10-09T04:00:50;3.00;;;2.45;;
9409;SDS011;4744;52.576;13.568;2023-10-09T04:03:17;2.85;;;2.65;;
9409;SDS011;4744;52.576;13.568;2023-10-09T04:05:45;3.88;;;2.75;;
9409;SDS011;4744;52.576;13.568;2023-10-09T04:08:14;5.25;;;2.80;;
9409;SDS011;4744;52.576;13.568;2023-10-09T04:10:54;3.13;;;2.70;;
9409;SDS011;4744;52.576;13.568;2023-10-09T04:13:26;3.22;;;2.60;;
9409;SDS011;4744;52.576;13.568;2023-10-09T04:15:59;2.70;;;2.50;;
9409;SDS011;4744;52.576;13.568;2023-10-09T04:18:34;3.47;;;3.10;;
9409;SDS011;4744;52.576;13.568;2023-10-09T04:21:03;2.72;;;2.53;;
9409;SDS011;4744;52.576;13.568;2023-10-09T04:23:44;2.78;;;2.55;;
9409;SDS011;4744;52.576;13.568;2023-10-09T04:26:35;5.65;;;3.55;;
9409;SDS011;4744;52.576;13.568;2023-10-09T04:29:05;3.50;;;3.20;;
9409;SDS011;4744;52.576;13.568;2023-10-09T04:31:35;3.80;;;3.10;;
9409;SDS011;4744;52.576;13.568;2023-10-09T04:34:03;3.95;;;3.28;;
9409;SDS011;4744;52.576;13.568;2023-10-09T04:36:54;3.00;;;2.70;;
9409;SDS011;4744;52.576;13.568;2023-10-09T04:39:27;3.53;;;2.80;;
9409;SDS011;4744;52.576;13.568;2023-10-09T04:42:13;3.30;;;3.00;;
9409;SDS011;4744;52.576;13.568;2023-10-09T04:45:03;2.90;;;2.70;;
9409;SDS011;4744;52.576;13.568;2023-10-09T04:47:48;3.65;;;3.10;;
9409;SDS011;4744;52.576;13.568;2023-10-09T04:50:31;3.20;;;2.90;;
9409;SDS011;4744;52.576;13.568;2023-10-09T04:53:44;4.20;;;3.65;;
9409;SDS011;4744;52.576;13.568;2023-10-09T04:56:16;4.43;;;3.90;;
9409;SDS011;4744;52.576;13.568;2023-10-09T04:58:43;4.82;;;4.40;;
9409;SDS011;4744;52.576;13.568;2023-10-09T05:01:13;5.07;;;4.68;;
9409;SDS011;4744;52.576;13.568;2023-10-09T05:03:42;4.97;;;4.55;;
9409;SDS011;4744;52.576;13.568;2023-10-09T05:06:08;4.72;;;4.32;;
9409;SDS011;4744;52.576;13.568;2023-10-09T05:08:47;4.28;;;3.88;;
9409;SDS011;4744;52.576;13.568;2023-10-09T05:11:14;5.10;;;4.70;;
9409;SDS011;4744;52.576;13.568;2023-10-09T05:14:01;5.00;;;4.50;;
9409;SDS011;4744;52.576;13.568;2023-10-09T05:16:39;5.90;;;4.40;;
9409;SDS011;4744;52.576;13.568;2023-10-09T05:19:19;4.43;;;3.92;;
9409;SDS011;4744;52.576;13.568;2023-10-09T05:22:07;4.72;;;3.80;;
9409;SDS011;4744;52.576;13.568;2023-10-09T05:24:42;4.35;;;3.95;;
9409;SDS011;4744;52.576;13.568;2023-10-09T05:27:12;4.50;;;4.10;;
9409;SDS011;4744;52.576;13.568;2023-10-09T05:29:50;4.07;;;3.72;;
9409;SDS011;4744;52.576;13.568;2023-10-09T05:32:38;4.63;;;4.22;;
9409;SDS011;4744;52.576;13.568;2023-10-09T05:35:13;3.63;;;3.33;;
9409;SDS011;4744;52.576;13.568;2023-10-09T05:37:40;4.18;;;3.88;;
9409;SDS011;4744;52.576;13.568;2023-10-09T05:40:11;4.30;;;3.90;;
9409;SDS011;4744;52.576;13.568;2023-10-09T05:42:56;4.80;;;4.28;;
9409;SDS011;4744;52.576;13.568;2023-10-09T05:45:29;4.47;;;4.07;;
9409;SDS011;4744;52.576;13.568;2023-10-09T05:48:23;6.22;;;4.50;;
9409;SDS011;4744;52.576;13.568;2023-10-09T05:51:07;5.38;;;4.65;;
9409;SDS011;4744;52.576;13.568;2023-10-09T05:53:58;5.40;;;4.63;;
9409;SDS011;4744;52.576;13.568;2023-10-09T05:56:48;5.60;;;4.70;;
9409;SDS011;4744;52.576;13.568;2023-10-09T05:59:33;5.82;;;5.03;;
9409;SDS011;4744;52.576;13.568;2023-10-09T06:02:19;7.45;;;6.00;;
9409;SDS011;4744;52.576;13.568;2023-10-09T06:05:12;6.80;;;6.20;;
9409;SDS011;4744;52.576;13.568;2023-10-09T06:08:00;8.77;;;7.93;;
9409;SDS011;4744;52.576;13.568;2023-10-09T06:10:33;8.30;;;7.50;;
9409;SDS011;4744;52.576;13.568;2023-10-09T06:13:07;6.88;;;6.25;;
9409;SDS011;4744;52.576;13.568;2023-10-09T06:15:55;7.55;;;6.85;;
9409;SDS011;4744;52.576;13.568;2023-10-09T06:18:52;6.35;;;5.75;;
9409;SDS011;4744;52.576;13.568;2023-10-09T06:21:36;6.82;;;6.00;;
9409;SDS011;4744;52.576;13.568;2023-10-09T06:24:21;6.43;;;5.90;;
9409;SDS011;4744;52.576;13.568;2023-10-09T06:26:49;8.02;;;6.82;;
9409;SDS011;4744;52.576;13.568;2023-10-09T06:29:33;7.45;;;6.80;;
9409;SDS011;4744;52.576;13.568;2023-10-09T06:32:00;8.70;;;6.30;;
9409;SDS011;4744;52.576;13.568;2023-10-09T06:34:51;8.25;;;7.38;;
9409;SDS011;4744;52.576;13.568;2023-10-09T06:37:22;8.70;;;7.20;;
9409;SDS011;4744;52.576;13.568;2023-10-09T06:40:04;8.25;;;7.47;;
9409;SDS011;4744;52.576;13.568;2023-10-09T06:42:51;7.30;;;6.70;;
9409;SDS011;4744;52.576;13.568;2023-10-09T06:45:20;8.25;;;7.45;;
9409;SDS011;4744;52.576;13.568;2023-10-09T06:47:53;7.65;;;6.90;;
9409;SDS011;4744;52.576;13.568;2023-10-09T06:50:22;7.28;;;6.68;;
9409;SDS011;4744;52.576;13.568;2023-10-09T06:53:12;7.72;;;6.32;;
9409;SDS011;4744;52.576;13.568;2023-10-09T06:55:45;7.00;;;6.20;;
9409;SDS011;4744;52.576;13.568;2023-10-09T06:58:14;7.93;;;6.55;;
9409;SDS011;4744;52.576;13.568;2023-10-09T07:00:47;6.38;;;5.80;;
9409;SDS011;4744;52.576;13.568;2023-10-09T07:03:39;5.70;;;5.20;;
9409;SDS011;4744;52.576;13.568;2023-10-09T07:06:18;6.35;;;5.75;;
9409;SDS011;4744;52.576;13.568;2023-10-09T07:08:50;5.88;;;5.38;;
9409;SDS011;4744;52.576;13.568;2023-10-09T07:11:41;6.63;;;6.03;;
9409;SDS011;4744;52.576;13.568;2023-10-09T07:14:25;5.82;;;5.30;;
9409;SDS011;4744;52.576;13.568;2023-10-09T07:17:09;5.50;;;5.00;;
9409;SDS011;4744;52.576;13.568;2023-10-09T07:19:47;7.25;;;6.55;;
9409;SDS011;4744;52.576;13.568;2023-10-09T07:22:33;7.70;;;6.90;;
9409;SDS011;4744;52.576;13.568;2023-10-09T07:25:05;7.40;;;6.70;;
9409;SDS011;4744;52.576;13.568;2023-10-09T07:27:52;8.20;;;7.40;;
9409;SDS011;4744;52.576;13.568;2023-10-09T07:30:21;8.43;;;7.63;;
9409;SDS011;4744;52.576;13.568;2023-10-09T07:33:03;7.75;;;7.05;;
9409;SDS011;4744;52.576;13.568;2023-10-09T07:35:42;8.45;;;7.68;;
9409;SDS011;4744;52.576;13.568;2023-10-09T07:38:24;8.88;;;8.05;;
9409;SDS011;4744;52.576;13.568;2023-10-09T07:40:55;8.82;;;8.05;;
9409;SDS011;4744;52.576;13.568;2023-10-09T07:43:26;8.35;;;7.05;;
9409;SDS011;4744;52.576;13.568;2023-10-09T07:46:01;8.70;;;7.90;;
9409;SDS011;4744;52.576;13.568;2023-10-09T07:48:46;8.60;;;7.80;;
9409;SDS011;4744;52.576;13.568;2023-10-09T07:51:17;8.27;;;7.22;;
9409;SDS011;4744;52.576;13.568;2023-10-09T07:53:49;8.00;;;7.30;;
9409;SDS011;4744;52.576;13.568;2023-10-09T07:56:22;8.98;;;8.07;;
9409;SDS011;4744;52.576;13.568;2023-10-09T07:58:49;10.10;;;9.10;;
9409;SDS011;4744;52.576;13.568;2023-10-09T08:01:17;9.75;;;8.95;;
9409;SDS011;4744;52.576;13.568;2023-10-09T08:03:48;9.93;;;9.02;;
9409;SDS011;4744;52.576;13.568;2023-10-09T08:06:26;8.20;;;7.50;;
9409;SDS011;4744;52.576;13.568;2023-10-09T08:09:06;6.97;;;6.30;;
9409;SDS011;4744;52.576;13.568;2023-10-09T08:12:04;6.90;;;6.30;;
9409;SDS011;4744;52.576;13.568;2023-10-09T08:14:40;7.00;;;6.20;;
9409;SDS011;4744;52.576;13.568;2023-10-09T08:17:10;7.43;;;6.03;;
9409;SDS011;4744;52.576;13.568;2023-10-09T08:19:39;5.68;;;5.07;;
9409;SDS011;4744;52.576;13.568;2023-10-09T08:22:20;6.13;;;5.53;;
9409;SDS011;4744;52.576;13.568;2023-10-09T08:25:07;5.30;;;4.80;;
9409;SDS011;4744;52.576;13.568;2023-10-09T08:27:34;6.00;;;5.50;;
9409;SDS011;4744;52.576;13.568;2023-10-09T08:30:12;6.38;;;5.18;;
9409;SDS011;4744;52.576;13.568;2023-10-09T08:32:53;7.22;;;5.70;;
9409;SDS011;4744;52.576;13.568;2023-10-09T08:35:27;7.97;;;7.18;;
9409;SDS011;4744;52.576;13.568;2023-10-09T08:37:55;7.63;;;6.72;;
9409;SDS011;4744;52.576;13.568;2023-10-09T08:40:28;8.23;;;7.32;;
9409;SDS011;4744;52.576;13.568;2023-10-09T08:42:59;8.30;;;7.50;;
9409;SDS011;4744;52.576;13.568;2023-10-09T08:45:34;8.18;;;7.35;;
9409;SDS011;4744;52.576;13.568;2023-10-09T08:48:04;8.68;;;7.60;;
9409;SDS011;4744;52.576;13.568;2023-10-09T08:50:32;8.23;;;7.43;;
9409;SDS011;4744;52.576;13.568;2023-10-09T08:52:59;8.50;;;7.70;;
9409;SDS011;4744;52.576;13.568;2023-10-09T08:55:29;9.88;;;8.98;;
9409;SDS011;4744;52.576;13.568;2023-10-09T08:57:56;9.68;;;8.73;;
9409;SDS011;4744;52.576;13.568;2023-10-09T09:00:23;8.73;;;7.95;;
9409;SDS011;4744;52.576;13.568;2023-10-09T09:02:50;10.02;;;9.13;;
9409;SDS011;4744;52.576;13.568;2023-10-09T09:05:19;9.77;;;8.88;;
9409;SDS011;4744;52.576;13.568;2023-10-09T09:07:46;9.15;;;8.35;;
9409;SDS011;4744;52.576;13.568;2023-10-09T09:10:14;9.43;;;8.63;;
9409;SDS011;4744;52.576;13.568;2023-10-09T09:12:44;7.57;;;6.78;;
9409;SDS011;4744;52.576;13.568;2023-10-09T09:15:13;7.22;;;6.63;;
9409;SDS011;4744;52.576;13.568;2023-10-09T09:17:48;7.53;;;6.55;;
9409;SDS011;4744;52.576;13.568;2023-10-09T09:20:19;6.57;;;6.00;;
9409;SDS011;4744;52.576;13.568;2023-10-09T09:22:52;7.07;;;6.47;;
9409;SDS011;4744;52.576;13.568;2023-10-09T09:25:21;7.30;;;6.60;;
9409;SDS011;4744;52.576;13.568;2023-10-09T09:27:52;6.80;;;6.20;;
9409;SDS011;4744;52.576;13.568;2023-10-09T09:30:23;6.50;;;6.00;;
9409;SDS011;4744;52.576;13.568;2023-10-09T09:32:56;6.72;;;6.20;;
9409;SDS011;4744;52.576;13.568;2023-10-09T09:35:37;6.70;;;6.00;;
9409;SDS011;4744;52.576;13.568;2023-10-09T09:38:08;6.55;;;5.45;;
9409;SDS011;4744;52.576;13.568;2023-10-09T09:40:42;6.32;;;5.72;;
9409;SDS011;4744;52.576;13.568;2023-10-09T09:43:11;5.57;;;5.00;;
9409;SDS011;4744;52.576;13.568;2023-10-09T09:45:46;5.47;;;4.97;;
9409;SDS011;4744;52.576;13.568;2023-10-09T09:48:17;6.13;;;5.38;;
9409;SDS011;4744;52.576;13.568;2023-10-09T09:50:44;4.75;;;4.30;;
9409;SDS011;4744;52.576;13.568;2023-10-09T09:53:12;5.00;;;4.53;;
9409;SDS011;4744;52.576;13.568;2023-10-09T09:55:44;6.63;;;5.50;;
9409;SDS011;4744;52.576;13.568;2023-10-09T09:58:22;5.70;;;5.25;;
9409;SDS011;4744;52.576;13.568;2023-10-09T10:00:53;5.95;;;5.38;;
9409;SDS011;4744;52.576;13.568;2023-10-09T10:03:26;5.47;;;5.00;;
9409;SDS011;4744;52.576;13.568;2023-10-09T10:05:58;5.47;;;4.97;;
9409;SDS011;4744;52.576;13.568;2023-10-09T10:08:30;6.07;;;5.63;;
9409;SDS011;4744;52.576;13.568;2023-10-09T10:10:58;7.20;;;6.60;;
9409;SDS011;4744;52.576;13.568;2023-10-09T10:16:26;6.97;;;6.38;;
9409;SDS011;4744;52.576;13.568;2023-10-09T10:19:00;7.78;;;6.95;;
9409;SDS011;4744;52.576;13.568;2023-10-09T10:21:46;6.80;;;6.20;;
9409;SDS011;4744;52.576;13.568;2023-10-09T10:27:17;8.52;;;7.88;;
9409;SDS011;4744;52.576;13.568;2023-10-09T10:29:57;9.52;;;8.63;;
9409;SDS011;4744;52.576;13.568;2023-10-09T10:32:58;8.60;;;7.80;;
9409;SDS011;4744;52.576;13.568;2023-10-09T10:35:34;8.75;;;7.95;;
9409;SDS011;4744;52.576;13.568;2023-10-09T10:38:26;8.20;;;7.50;;
9409;SDS011;4744;52.576;13.568;2023-10-09T10:41:08;8.95;;;7.28;;
9409;SDS011;4744;52.576;13.568;2023-10-09T10:43:37;8.25;;;7.45;;
9409;SDS011;4744;52.576;13.568;2023-10-09T10:46:21;6.93;;;6.22;;
9409;SDS011;4744;52.576;13.568;2023-10-09T10:49:03;8.27;;;7.47;;
9409;SDS011;4744;52.576;13.568;2023-10-09T10:51:41;7.47;;;6.82;;
9409;SDS011;4744;52.576;13.568;2023-10-09T10:54:20;7.07;;;6.38;;
9409;SDS011;4744;52.576;13.568;2023-10-09T10:57:15;6.85;;;6.15;;
9409;SDS011;4744;52.576;13.568;2023-10-09T10:59:53;6.25;;;5.68;;
9409;SDS011;4744;52.576;13.568;2023-10-09T11:02:39;7.47;;;6.18;;
9409;SDS011;4744;52.576;13.568;2023-10-09T11:05:13;6.72;;;5.97;;
9409;SDS011;4744;52.576;13.568;2023-10-09T11:07:57;6.93;;;6.30;;
9409;SDS011;4744;52.576;13.568;2023-10-09T11:10:26;7.60;;;6.80;;
9409;SDS011;4744;52.576;13.568;2023-10-09T11:12:57;6.78;;;6.15;;
9409;SDS011;4744;52.576;13.568;2023-10-09T11:15:41;6.30;;;5.70;;
9409;SDS011;4744;52.576;13.568;2023-10-09T11:18:13;7.05;;;6.35;;
9409;SDS011;4744;52.576;13.568;2023-10-09T11:20:44;6.40;;;5.82;;
9409;SDS011;4744;52.576;13.568;2023-10-09T11:23:21;6.97;;;6.22;;
9409;SDS011;4744;52.576;13.568;2023-10-09T11:26:01;6.68;;;5.88;;
9409;SDS011;4744;52.576;13.568;2023-10-09T11:28:46;6.80;;;6.20;;
9409;SDS011;4744;52.576;13.568;2023-10-09T11:31:38;6.90;;;6.30;;
9409;SDS011;4744;52.576;13.568;2023-10-09T11:34:18;6.90;;;6.30;;
9409;SDS011;4744;52.576;13.568;2023-10-09T11:36:54;6.35;;;5.75;;
9409;SDS011;4744;52.576;13.568;2023-10-09T11:39:26;5.30;;;4.80;;
9409;SDS011;4744;52.576;13.568;2023-10-09T11:42:08;5.53;;;5.03;;
9409;SDS011;4744;52.576;13.568;2023-10-09T11:44:39;4.78;;;4.38;;
9409;SDS011;4744;52.576;13.568;2023-10-09T11:47:09;5.38;;;4.90;;
9409;SDS011;4744;52.576;13.568;2023-10-09T11:49:53;6.18;;;5.55;;
9409;SDS011;4744;52.576;13.568;2023-10-09T11:52:41;5.10;;;4.60;;
9409;SDS011;4744;52.576;13.568;2023-10-09T11:55:33;6.28;;;4.95;;
9409;SDS011;4744;52.576;13.568;2023-10-09T11:58:01;5.18;;;4.53;;
9409;SDS011;4744;52.576;13.568;2023-10-09T12:00:30;5.00;;;4.60;;
9409;SDS011;4744;52.576;13.568;2023-10-09T12:03:07;4.97;;;4.47;;
9409;SDS011;4744;52.576;13.568;2023-10-09T12:05:36;4.55;;;4.15;;
9409;SDS011;4744;52.576;13.568;2023-10-09T12:08:03;4.63;;;4.05;;
9409;SDS011;4744;52.576;13.568;2023-10-09T12:10:33;4.35;;;3.95;;
9409;SDS011;4744;52.576;13.568;2023-10-09T12:13:03;4.22;;;3.65;;
9409;SDS011;4744;52.576;13.568;2023-10-09T12:15:30;4.07;;;3.72;;
9409;SDS011;4744;52.576;13.568;2023-10-09T12:18:03;6.38;;;4.22;;
9409;SDS011;4744;52.576;13.568;2023-10-09T12:20:32;4.75;;;4.35;;
9409;SDS011;4744;52.576;13.568;2023-10-09T12:23:02;4.55;;;3.70;;
9409;SDS011;4744;52.576;13.568;2023-10-09T12:25:31;4.05;;;3.70;;
9409;SDS011;4744;52.576;13.568;2023-10-09T12:28:00;5.68;;;3.72;;
9409;SDS011;4744;52.576;13.568;2023-10-09T12:30:27;3.60;;;3.30;;
9409;SDS011;4744;52.576;13.568;2023-10-09T12:32:54;4.43;;;3.65;;
9409;SDS011;4744;52.576;13.568;2023-10-09T12:35:22;4.22;;;3.92;;
9409;SDS011;4744;52.576;13.568;2023-10-09T12:37:50;4.57;;;4.18;;
9409;SDS011;4744;52.576;13.568;2023-10-09T12:40:21;4.22;;;3.83;;
9409;SDS011;4744;52.576;13.568;2023-10-09T12:42:54;4.57;;;3.75;;
9409;SDS011;4744;52.576;13.568;2023-10-09T12:45:24;3.70;;;3.40;;
9409;SDS011;4744;52.576;13.568;2023-10-09T12:47:52;4.20;;;3.80;;
9409;SDS011;4744;52.576;13.568;2023-10-09T12:50:24;4.72;;;4.22;;
9409;SDS011;4744;52.576;13.568;2023-10-09T12:52:54;4.72;;;4.20;;
9409;SDS011;4744;52.576;13.568;2023-10-09T12:55:23;4.88;;;4.45;;
9409;SDS011;4744;52.576;13.568;2023-10-09T12:57:57;4.65;;;4.25;;
9409;SDS011;4744;52.576;13.568;2023-10-09T13:00:29;4.47;;;4.07;;
9409;SDS011;4744;52.576;13.568;2023-10-09T13:02:57;5.22;;;4.70;;
9409;SDS011;4744;52.576;13.568;2023-10-09T13:05:26;4.40;;;4.00;;
9409;SDS011;4744;52.576;13.568;2023-10-09T13:07:53;5.07;;;4.68;;
9409;SDS011;4744;52.576;13.568;2023-10-09T13:10:21;7.40;;;5.28;;
9409;SDS011;4744;52.576;13.568;2023-10-09T13:12:56;5.82;;;5.32;;
9409;SDS011;4744;52.576;13.568;2023-10-09T13:15:23;5.43;;;4.93;;
9409;SDS011;4744;52.576;13.568;2023-10-09T13:17:52;6.15;;;5.55;;
9409;SDS011;4744;52.576;13.568;2023-10-09T13:20:19;5.10;;;4.70;;
9409;SDS011;4744;52.576;13.568;2023-10-09T13:22:46;5.70;;;5.20;;
9409;SDS011;4744;52.576;13.568;2023-10-09T13:25:14;5.10;;;4.70;;
9409;SDS011;4744;52.576;13.568;2023-10-09T13:27:43;5.50;;;5.00;;
9409;SDS011;4744;52.576;13.568;2023-10-09T13:30:16;4.63;;;4.22;;
9409;SDS011;4744;52.576;13.568;2023-10-09T13:32:48;5.15;;;4.75;;
9409;SDS011;4744;52.576;13.568;2023-10-09T13:35:16;4.88;;;4.47;;
9409;SDS011;4744;52.576;13.568;2023-10-09T13:37:44;4.90;;;4.50;;
9409;SDS011;4744;52.576;13.568;2023-10-09T13:40:19;4.32;;;3.80;;
9409;SDS011;4744;52.576;13.568;2023-10-09T13:42:54;4.10;;;3.75;;
9409;SDS011;4744;52.576;13.568;2023-10-09T13:45:24;4.53;;;4.13;;
9409;SDS011;4744;52.576;13.568;2023-10-09T13:47:53;5.05;;;4.60;;
9409;SDS011;4744;52.576;13.568;2023-10-09T13:50:23;5.20;;;4.80;;
9409;SDS011;4744;52.576;13.568;2023-10-09T13:52:54;5.65;;;4.45;;
9409;SDS011;4744;52.576;13.568;2023-10-09T13:55:21;5.78;;;5.18;;
9409;SDS011;4744;52.576;13.568;2023-10-09T13:57:58;5.57;;;5.07;;
9409;SDS011;4744;52.576;13.568;2023-10-09T14:00:24;6.45;;;5.85;;
9409;SDS011;4744;52.576;13.568;2023-10-09T14:03:07;5.20;;;4.70;;
9409;SDS011;4744;52.576;13.568;2023-10-09T14:05:38;5.10;;;4.70;;
9409;SDS011;4744;52.576;13.568;2023-10-09T14:08:18;6.03;;;5.32;;
9409;SDS011;4744;52.576;13.568;2023-10-09T14:10:47;5.88;;;5.38;;
9409;SDS011;4744;52.576;13.568;2023-10-09T14:13:15;5.50;;;5.00;;
9409;SDS011;4744;52.576;13.568;2023-10-09T14:15:51;5.75;;;5.22;;
9409;SDS011;4744;52.576;13.568;2023-10-09T14:18:19;5.20;;;4.70;;
9409;SDS011;4744;52.576;13.568;2023-10-09T14:20:47;5.40;;;4.72;;
9409;SDS011;4744;52.576;13.568;2023-10-09T14:23:15;5.07;;;4.63;;
9409;SDS011;4744;52.576;13.568;2023-10-09T14:25:46;5.13;;;4.72;;
9409;SDS011;4744;52.576;13.568;2023-10-09T14:28:16;5.57;;;5.13;;
9409;SDS011;4744;52.576;13.568;2023-10-09T14:30:44;5.72;;;5.03;;
9409;SDS011;4744;52.576;13.568;2023-10-09T14:33:15;5.35;;;4.85;;
9409;SDS011;4744;52.576;13.568;2023-10-09T14:35:47;5.65;;;5.20;;
9409;SDS011;4744;52.576;13.568;2023-10-09T14:38:17;6.88;;;5.47;;
9409;SDS011;4744;52.576;13.568;2023-10-09T14:40:51;6.93;;;5.03;;
9409;SDS011;4744;52.576;13.568;2023-10-09T14:43:24;5.30;;;4.90;;
9409;SDS011;4744;52.576;13.568;2023-10-09T14:45:53;5.55;;;5.05;;
9409;SDS011;4744;52.576;13.568;2023-10-09T14:48:21;5.45;;;5.05;;
9409;SDS011;4744;52.576;13.568;2023-10-09T14:50:51;5.82;;;5.32;;
9409;SDS011;4744;52.576;13.568;2023-10-09T14:53:19;5.63;;;5.22;;
9409;SDS011;4744;52.576;13.568;2023-10-09T14:55:46;5.40;;;5.00;;
9409;SDS011;4744;52.576;13.568;2023-10-09T14:58:13;5.40;;;4.90;;
9409;SDS011;4744;52.576;13.568;2023-10-09T15:00:41;4.80;;;4.40;;
9409;SDS011;4744;52.576;13.568;2023-10-09T15:03:12;4.70;;;4.30;;
9409;SDS011;4744;52.576;13.568;2023-10-09T15:05:40;5.00;;;4.50;;
9409;SDS011;4744;52.576;13.568;2023-10-09T15:08:08;4.97;;;4.57;;
9409;SDS011;4744;52.576;13.568;2023-10-09T15:10:36;4.70;;;4.32;;
9409;SDS011;4744;52.576;13.568;2023-10-09T15:13:11;4.78;;;4.38;;
9409;SDS011;4744;52.576;13.568;2023-10-09T15:15:41;4.43;;;4.13;;
9409;SDS011;4744;52.576;13.568;2023-10-09T15:18:08;5.90;;;4.40;;
9409;SDS011;4744;52.576;13.568;2023-10-09T15:20:38;4.50;;;4.10;;
9409;SDS011;4744;52.576;13.568;2023-10-09T15:23:06;4.15;;;3.75;;
9409;SDS011;4744;52.576;13.568;2023-10-09T15:25:34;4.82;;;4.25;;
9409;SDS011;4744;52.576;13.568;2023-10-09T15:28:04;4.40;;;4.00;;
9409;SDS011;4744;52.576;13.568;2023-10-09T15:30:32;4.93;;;4.53;;
9409;SDS011;4744;52.576;13.568;2023-10-09T15:33:01;4.35;;;4.05;;
9409;SDS011;4744;52.576;13.568;2023-10-09T15:35:30;4.80;;;4.40;;
9409;SDS011;4744;52.576;13.568;2023-10-09T15:37:59;4.85;;;4.45;;
9409;SDS011;4744;52.576;13.568;2023-10-09T15:40:28;4.90;;;4.40;;
9409;SDS011;4744;52.576;13.568;2023-10-09T15:42:58;5.15;;;4.70;;
9409;SDS011;4744;52.576;13.568;2023-10-09T15:45:26;4.50;;;4.10;;